TENAKEE SPRINGS AK US NWS current weather conditions

sailwx.info

Wind from 130 at 5 knots gusting 13

Air temperature 15.2° C
Dewpoint 10.9° C

Last reported at 2020-Aug-05 05:02 UTC.
Time now 2020-Aug-05 05:48 UTC

Location: N 57°47' W 135°13'.
View on Google Maps.

See reports from other nearby stations

  
Tides and Currents Weather Stations Pressure Air Temp Water Temp Dewpoint Dewpoint Depression Visibility Wind Speed Wind Dir Waves Ship Positions
date/time (UTC)wind fromknots sea level pressurealtimeterstation pressurevisibilityair tempwater tempwave heightnotes
2020-Aug-05 05:02 130 5 gusting 13 15.2
2020-Aug-05 04:52 130 2 gusting 7 15.2
2020-Aug-05 04:42 090 4 gusting 13 14.9
2020-Aug-05 04:32 070 6 gusting 13 15.0
2020-Aug-05 04:22 090 4 gusting 13 15.2
2020-Aug-05 04:12 080 5 gusting 14 15.3
2020-Aug-05 04:02 070 5 gusting 13 15.1
2020-Aug-05 03:52 070 4 gusting 12 14.9
2020-Aug-05 03:42 060 6 gusting 13 14.8
2020-Aug-05 03:32 070 5 gusting 12 14.3
2020-Aug-05 03:22 070 6 gusting 14 14.4
2020-Aug-05 03:12 070 7 gusting 17 14.8
2020-Aug-05 03:02 080 6 gusting 17 15.0
2020-Aug-05 02:52 080 6 gusting 21 15.2
2020-Aug-05 02:42 080 6 gusting 14 15.6
2020-Aug-05 02:32 080 6 gusting 18 15.8
2020-Aug-05 02:22 080 6 gusting 19 15.7
2020-Aug-05 02:12 080 6 gusting 18 15.8
2020-Aug-05 02:02 080 6 gusting 17 16.1
2020-Aug-05 01:52 080 6 gusting 19 16.4
2020-Aug-05 01:42 080 5 gusting 14 16.7
2020-Aug-05 01:32 110 5 gusting 18 16.8
2020-Aug-05 01:22 090 5 gusting 17 16.5
2020-Aug-05 01:12 100 5 gusting 17 16.5
2020-Aug-05 01:02 090 5 gusting 14 16.7
2020-Aug-05 00:52 100 5 gusting 14 17.0
2020-Aug-05 00:42 100 4 gusting 12 16.4
2020-Aug-05 00:32 080 5 gusting 13 16.0
2020-Aug-05 00:22 100 5 gusting 13 16.1
2020-Aug-05 00:12 090 5 gusting 12 16.1
2020-Aug-04 23:52 090 5 gusting 13 16.0
2020-Aug-04 23:42 080 5 gusting 14 15.7
2020-Aug-04 23:32 070 6 gusting 13 15.3
2020-Aug-04 23:22 080 6 gusting 14 15.3
2020-Aug-04 23:12 080 5 gusting 13 15.5
2020-Aug-04 23:02 080 4 gusting 9 15.7
2020-Aug-04 22:52 090 4 gusting 12 16.0
2020-Aug-04 22:42 090 5 gusting 15 16.2
2020-Aug-04 22:32 100 4 gusting 12 16.5
2020-Aug-04 22:22 110 4 gusting 13 16.7
2020-Aug-04 22:12 120 4 gusting 11 16.6
2020-Aug-04 22:02 100 4 gusting 12 16.3
2020-Aug-04 21:52 080 4 gusting 11 15.9
2020-Aug-04 21:42 100 2 gusting 9 15.7
2020-Aug-04 21:32 120 2 gusting 7 15.7
2020-Aug-04 21:22 080 4 gusting 11 15.8
2020-Aug-04 21:12 080 4 gusting 9 15.7
2020-Aug-04 21:02 080 4 gusting 13 15.7
2020-Aug-04 20:52 070 4 gusting 8 15.6
2020-Aug-04 20:42 080 1 gusting 6 15.6
2020-Aug-04 20:32 100 2 gusting 7 15.5
2020-Aug-04 20:22 100 2 gusting 7 15.5
2020-Aug-04 20:12 100 1 gusting 6 15.5
2020-Aug-04 20:02 090 2 gusting 6 15.6
2020-Aug-04 19:52 100 2 gusting 6 15.4
2020-Aug-04 19:42 070 2 gusting 8 15.2
2020-Aug-04 19:32 090 1 gusting 6 14.7
2020-Aug-04 19:22 080 2 gusting 6 14.6
2020-Aug-04 19:12 080 1 gusting 6 14.4
2020-Aug-04 19:02 060 2 gusting 6 14.2
2020-Aug-04 18:52 070 2 gusting 6 14.3
2020-Aug-04 18:42 100 1 gusting 6 14.6
2020-Aug-04 18:32 080 2 gusting 6 14.6
2020-Aug-04 18:22 120 2 gusting 6 14.6
2020-Aug-04 18:12 090 2 gusting 7 14.7
2020-Aug-04 18:02 080 1 gusting 6 14.7
2020-Aug-04 17:52 130 1 gusting 5 14.8
2020-Aug-04 17:42 100 2 gusting 7 14.8
2020-Aug-04 17:32 110 2 gusting 7 14.7
2020-Aug-04 17:22 080 1 gusting 9 14.5
2020-Aug-04 17:12 080 2 gusting 8 14.5
2020-Aug-04 17:02 080 2 gusting 9 14.5
2020-Aug-04 16:52 100 2 gusting 9 14.5
2020-Aug-04 16:42 070 4 gusting 13 14.3
2020-Aug-04 16:32 070 4 gusting 11 14.3
2020-Aug-04 16:22 080 4 gusting 12 14.4
2020-Aug-04 16:12 070 4 gusting 11 14.3
2020-Aug-04 16:02 070 2 gusting 8 14.1
2020-Aug-04 15:52 080 2 gusting 8 14.1
2020-Aug-04 15:42 070 4 gusting 9 14.0
2020-Aug-04 15:32 120 2 gusting 7 14.0
2020-Aug-04 15:22 120 2 gusting 9 14.0
2020-Aug-04 15:12 090 2 gusting 11 13.9
2020-Aug-04 15:02 070 2 gusting 8 13.7
2020-Aug-04 14:52 080 2 gusting 9 13.6
2020-Aug-04 14:42 070 2 gusting 6 13.5
2020-Aug-04 14:32 070 4 gusting 13 13.5
2020-Aug-04 14:22 070 4 gusting 13 13.6
2020-Aug-04 14:12 070 5 gusting 12 13.5
2020-Aug-04 14:02 070 4 gusting 11 13.4
2020-Aug-04 13:52 070 4 gusting 12 13.4
2020-Aug-04 13:42 070 5 gusting 12 13.4
2020-Aug-04 13:32 070 5 gusting 12 13.3
2020-Aug-04 13:22 070 5 gusting 12 13.3
2020-Aug-04 13:12 070 5 gusting 14 13.3
2020-Aug-04 13:02 070 5 gusting 11 13.1
2020-Aug-04 12:52 060 4 gusting 14 13.1
2020-Aug-04 12:42 070 5 gusting 13 13.1
2020-Aug-04 12:32 070 5 gusting 12 13.1
2020-Aug-04 12:22 070 5 gusting 12 13.1
2020-Aug-04 12:12 070 5 gusting 13 13.1
2020-Aug-04 12:02 070 5 gusting 13 13.0
2020-Aug-04 11:52 070 5 gusting 11 13.0
2020-Aug-04 11:42 070 5 gusting 13 13.0
2020-Aug-04 11:32 070 5 gusting 11 13.0
2020-Aug-04 11:22 070 5 gusting 11 13.0
2020-Aug-04 11:12 070 5 gusting 15 13.0
2020-Aug-04 11:02 070 6 gusting 13 13.0
2020-Aug-04 10:52 080 6 gusting 17 13.0
2020-Aug-04 10:42 070 6 gusting 12 12.9
2020-Aug-04 10:32 070 4 gusting 11 12.9
2020-Aug-04 10:22 070 5 gusting 9 12.9
2020-Aug-04 10:12 070 4 gusting 8 12.9
2020-Aug-04 10:02 060 4 gusting 9 12.9
2020-Aug-04 09:52 060 5 gusting 9 12.9
2020-Aug-04 09:42 070 5 gusting 13 12.9
2020-Aug-04 09:32 070 4 gusting 11 12.8
2020-Aug-04 09:22 060 4 gusting 8 12.6
2020-Aug-04 09:12 060 2 gusting 6 12.6
2020-Aug-04 09:02 060 4 gusting 8 12.7
2020-Aug-04 08:52 070 4 gusting 7 12.7
2020-Aug-04 08:42 060 2 gusting 6 12.7
2020-Aug-04 08:32 040 2 gusting 8 12.7
2020-Aug-04 08:22 030 2 gusting 6 12.8
2020-Aug-04 08:12 050 2 gusting 5 12.9
2020-Aug-04 08:02 030 2 gusting 5 12.9
2020-Aug-04 07:52 060 4 gusting 8 13.2
2020-Aug-04 07:42 060 2 gusting 12 13.4
2020-Aug-04 07:32 060 4 gusting 9 13.4
2020-Aug-04 07:22 060 2 gusting 7 13.4
2020-Aug-04 07:12 060 4 gusting 7 13.3
2020-Aug-04 07:02 050 1 gusting 5 13.3
2020-Aug-04 06:52 060 2 gusting 5 13.4
2020-Aug-04 06:42 060 2 gusting 6 13.3
2020-Aug-04 06:32 040 1 gusting 5 13.2
2020-Aug-04 06:22 020 2 gusting 6 12.9
2020-Aug-04 06:12 030 1 gusting 5 12.7
2020-Aug-04 06:02 010 1 gusting 2 12.6
2020-Aug-04 05:52 360 1 gusting 2 12.7
2020-Aug-04 05:42 020 1 gusting 2 12.8
2020-Aug-04 05:32 020 1 gusting 4 12.8
2020-Aug-04 05:22 360 1 gusting 2 12.9
2020-Aug-04 05:12 010 1 gusting 2 13.1
2020-Aug-04 05:02 360 1 gusting 2 13.2
2020-Aug-04 04:52 020 1 gusting 2 13.3
2020-Aug-04 04:42 030 1 gusting 1 13.6
2020-Aug-04 04:32 290 1 gusting 4 13.8
2020-Aug-04 04:22 280 1 gusting 6 13.6
2020-Aug-04 04:12 010 0 gusting 1 13.7
2020-Aug-04 04:02 020 0 gusting 1 13.8
2020-Aug-04 03:52 020 1 gusting 2 13.9
2020-Aug-04 03:42 020 1 gusting 1 14.1
2020-Aug-04 03:32 340 0 gusting 2 14.2
2020-Aug-04 03:22 350 0 gusting 1 14.3
2020-Aug-04 03:12 010 1 gusting 1 14.2
2020-Aug-04 03:02 050 1 gusting 2 14.2
2020-Aug-04 02:52 030 1 gusting 4 14.4
2020-Aug-04 02:42 040 1 gusting 4 14.5
2020-Aug-04 02:32 050 1 gusting 5 14.5
2020-Aug-04 02:22 160 1 gusting 5 14.3
2020-Aug-04 02:12 170 5 gusting 8 14.2
2020-Aug-04 02:02 100 1 gusting 6 14.4
2020-Aug-04 01:52 120 1 gusting 2 14.5
2020-Aug-04 01:42 110 0 gusting 4 14.7
2020-Aug-04 01:32 100 0 gusting 2 14.6
2020-Aug-04 01:22 130 1 gusting 2 14.7
2020-Aug-04 01:12 110 0 gusting 2 14.8
2020-Aug-04 01:02 060 1 gusting 4 14.8
2020-Aug-04 00:52 060 1 gusting 2 14.9
2020-Aug-04 00:42 070 0 gusting 2 14.9
2020-Aug-04 00:32 110 0 gusting 4 15.0
2020-Aug-04 00:22 070 0 gusting 2 15.0
2020-Aug-04 00:12 030 0 gusting 1 14.8
2020-Aug-03 23:52 260 0 gusting 2 14.8
2020-Aug-03 23:42 150 1 gusting 4 14.7
2020-Aug-03 23:32 150 1 gusting 2 14.8
2020-Aug-03 23:22 040 1 gusting 5 14.8
2020-Aug-03 23:12 14.7
2020-Aug-03 23:02 170 2 gusting 7 14.4
2020-Aug-03 22:52 150 4 gusting 7 14.8
2020-Aug-03 22:42 140 1 gusting 6 15.1
2020-Aug-03 22:32 190 1 gusting 2 15.2
2020-Aug-03 22:22 230 0 gusting 4 15.1
2020-Aug-03 22:12 220 2 gusting 5 15.0
2020-Aug-03 22:02 180 2 gusting 6 15.9
2020-Aug-03 21:52 130 0 gusting 2 16.7
2020-Aug-03 21:42 090 1 gusting 2 16.9
2020-Aug-03 21:32 040 1 gusting 5 16.8
2020-Aug-03 21:22 130 1 gusting 4 16.2
2020-Aug-03 21:12 130 1 gusting 4 15.8
2020-Aug-03 21:02 120 1 gusting 2 15.9
2020-Aug-03 20:52 170 0 gusting 1 15.7
2020-Aug-03 20:42 220 0 gusting 1 15.9
2020-Aug-03 20:32 170 0 gusting 1 15.8
2020-Aug-03 20:22 130 1 gusting 2 15.8
2020-Aug-03 20:12 140 2 gusting 4 15.7
2020-Aug-03 20:02 130 1 gusting 2 16.1
2020-Aug-03 19:52 120 1 gusting 2 15.7
2020-Aug-03 19:42 120 1 gusting 5 15.6
2020-Aug-03 19:32 120 1 gusting 4 15.7
2020-Aug-03 19:22 120 1 gusting 4 15.7
2020-Aug-03 19:12 150 1 gusting 4 15.5
2020-Aug-03 19:02 120 1 gusting 2 15.5
2020-Aug-03 18:52 120 1 gusting 4 15.4
2020-Aug-03 18:42 120 1 gusting 4 15.3
2020-Aug-03 18:32 120 1 gusting 4 15.3
2020-Aug-03 18:22 120 1 gusting 5 15.3
2020-Aug-03 18:12 130 1 gusting 4 15.2
2020-Aug-03 18:02 120 1 gusting 5 14.9
2020-Aug-03 17:52 130 1 gusting 4 14.8
2020-Aug-03 17:42 130 1 gusting 4 15.1
2020-Aug-03 17:32 120 1 gusting 4 14.9
2020-Aug-03 17:22 130 1 gusting 4 14.6
2020-Aug-03 17:12 130 1 gusting 4 14.7
2020-Aug-03 17:02 120 0 gusting 4 14.5
2020-Aug-03 16:52 130 1 gusting 2 14.2
2020-Aug-03 16:42 130 1 gusting 2 14.3
2020-Aug-03 16:32 140 0 gusting 1 14.1
2020-Aug-03 16:22 140 0 gusting 1 14.1
2020-Aug-03 16:12 120 0 gusting 1 14.1
2020-Aug-03 16:02 140 0 gusting 1 14.0
2020-Aug-03 15:52 100 0 gusting 1 14.0
2020-Aug-03 15:42 020 0 gusting 1 13.7
2020-Aug-03 15:32 360 0 gusting 1 13.6
2020-Aug-03 15:22 13.5
2020-Aug-03 15:12 020 0 gusting 2 13.3
2020-Aug-03 15:02 360 0 gusting 1 13.3
2020-Aug-03 14:52 020 1 gusting 1 13.3
2020-Aug-03 14:42 360 1 gusting 1 13.3
2020-Aug-03 14:32 360 0 gusting 1 13.2
2020-Aug-03 14:22 13.1
2020-Aug-03 14:12 340 0 gusting 1 13.1
2020-Aug-03 14:02 360 0 gusting 1 13.1
2020-Aug-03 13:52 360 0 gusting 1 13.1
2020-Aug-03 13:42 350 0 gusting 1 13.1
2020-Aug-03 13:32 030 0 gusting 1 13.1
2020-Aug-03 13:22 050 1 gusting 2 13.0
2020-Aug-03 13:12 040 1 gusting 2 12.9
2020-Aug-03 13:02 010 1 gusting 1 12.7
2020-Aug-03 12:52 010 1 gusting 1 12.7
2020-Aug-03 12:42 360 1 gusting 1 12.7
2020-Aug-03 12:32 350 1 gusting 1 12.8
2020-Aug-03 12:22 010 1 gusting 1 13.0
2020-Aug-03 12:12 010 1 gusting 1 13.1
2020-Aug-03 12:02 360 0 gusting 1 13.2
2020-Aug-03 11:52 010 0 gusting 1 13.3
2020-Aug-03 11:42 360 0 gusting 1 13.2
2020-Aug-03 11:32 020 0 gusting 2 13.3
2020-Aug-03 11:22 020 0 gusting 1 13.3
2020-Aug-03 11:12 360 0 gusting 1 13.2
2020-Aug-03 11:02 360 0 gusting 1 13.3
2020-Aug-03 10:52 360 0 gusting 1 13.3
2020-Aug-03 10:42 360 0 gusting 1 13.3
2020-Aug-03 10:32 360 0 gusting 1 13.3
2020-Aug-03 10:22 360 0 gusting 1 13.3
2020-Aug-03 10:12 350 0 gusting 1 13.3
2020-Aug-03 10:02 360 0 gusting 1 13.3
2020-Aug-03 09:52 010 0 gusting 1 13.3
2020-Aug-03 09:42 360 0 gusting 1 13.3
2020-Aug-03 09:32 360 0 gusting 1 13.3
2020-Aug-03 09:22 350 1 gusting 1 13.3
2020-Aug-03 09:12 360 0 gusting 1 13.4
2020-Aug-03 09:02 13.5
2020-Aug-03 08:52 13.5
2020-Aug-03 08:42 360 0 gusting 1 13.5
2020-Aug-03 08:32 360 0 gusting 1 13.5
2020-Aug-03 08:22 360 0 gusting 2 13.6
2020-Aug-03 08:12 030 0 gusting 2 13.6
2020-Aug-03 08:02 030 0 gusting 2 13.7
2020-Aug-03 07:52 030 0 gusting 1 13.8
2020-Aug-03 07:42 030 0 gusting 2 13.6
2020-Aug-03 07:32 010 0 gusting 1 13.6
2020-Aug-03 07:22 020 1 gusting 2 13.7
2020-Aug-03 07:12 040 1 gusting 2 13.6
2020-Aug-03 07:02 060 1 gusting 2 13.6
2020-Aug-03 06:52 050 1 gusting 2 13.6
2020-Aug-03 06:42 030 0 gusting 2 13.6
2020-Aug-03 06:32 010 0 gusting 1 13.6
2020-Aug-03 06:22 360 0 gusting 1 13.6
2020-Aug-03 06:12 360 0 gusting 1 13.6
2020-Aug-03 06:02 010 1 gusting 2 13.6
2020-Aug-03 05:52 030 1 gusting 2 13.7
2020-Aug-03 05:42 040 1 gusting 2 13.8
2020-Aug-03 05:32 050 0 gusting 2 13.8
2020-Aug-03 05:22 030 1 gusting 2 13.8
2020-Aug-03 05:12 030 1 gusting 4 13.9
2020-Aug-03 05:02 020 1 gusting 4 13.9